Time;durP1;ratioP1;P1;durP2;ratioP2;P2;SDS_P1;SDS_P2;PMS_P1;PMS_P2;Temp;Humidity;BMP_temperature;BMP_pressure;BME280_temperature;BME280_humidity;BME280_pressure;Samples;Min_cycle;Max_cycle;Signal;HPM_P1;HPM_P2
2021/09/14 00:02:12;;;;;;;0.20;0.20;;;21.40;99.90;;;;;;5057584;28;20021;-81
2021/09/14 00:04:39;;;;;;;0.30;0.30;;;21.40;99.90;;;;;;5039837;28;20067;-80
2021/09/14 00:07:05;;;;;;;0.20;0.20;;;21.50;99.90;;;;;;5057346;28;20021;-80
2021/09/14 00:09:31;;;;;;;0.10;0.10;;;21.40;99.90;;;;;;5051370;28;20042;-79
2021/09/14 00:11:56;;;;;;;0.10;0.10;;;21.40;99.90;;;;;;5048641;28;20481;-80
2021/09/14 00:14:22;;;;;;;0.30;0.30;;;21.30;99.90;;;;;;5055699;28;20321;-80
2021/09/14 00:16:48;;;;;;;0.23;0.23;;;21.30;99.90;;;;;;5046645;28;20063;-80
2021/09/14 00:19:15;;;;;;;1.97;0.97;;;21.40;99.90;;;;;;5056390;28;20324;-80
2021/09/14 00:21:41;;;;;;;1.35;0.77;;;21.40;99.90;;;;;;5035826;28;20112;-80
2021/09/14 00:24:07;;;;;;;0.37;0.27;;;21.40;99.90;;;;;;5053045;28;20171;-80
2021/09/14 00:26:33;;;;;;;1.70;0.60;;;21.40;99.90;;;;;;5049061;28;20050;-79
2021/09/14 00:28:59;;;;;;;0.17;0.10;;;21.30;99.90;;;;;;5053030;28;20037;-80
2021/09/14 00:31:25;;;;;;;0.65;0.63;;;21.30;99.90;;;;;;5056500;28;20047;-79
2021/09/14 00:33:51;;;;;;;0.43;0.43;;;21.30;99.90;;;;;;5051858;28;20048;-79
2021/09/14 00:36:16;;;;;;;0.27;0.27;;;21.20;99.90;;;;;;5032208;28;20025;-78
2021/09/14 00:38:42;;;;;;;0.03;0.03;;;21.10;99.90;;;;;;5050052;28;20029;-81
2021/09/14 00:41:08;;;;;;;0.20;0.10;;;21.20;99.90;;;;;;5050514;28;20029;-82
2021/09/14 00:43:34;;;;;;;0.00;0.00;;;21.10;99.90;;;;;;5051958;28;20079;-83
2021/09/14 00:46:00;;;;;;;0.13;0.13;;;21.20;99.90;;;;;;5051786;28;20040;-85
2021/09/14 00:48:26;;;;;;;1.85;0.93;;;21.30;99.90;;;;;;5051050;28;20104;-84
2021/09/14 00:50:52;;;;;;;0.10;0.10;;;21.10;99.90;;;;;;5050560;28;20037;-81
2021/09/14 00:53:19;;;;;;;0.80;0.70;;;20.80;99.90;;;;;;5048063;28;20436;-81
2021/09/14 00:55:45;;;;;;;0.30;0.30;;;20.60;99.90;;;;;;5038398;28;20554;-80
2021/09/14 00:58:11;;;;;;;0.35;0.35;;;20.60;99.90;;;;;;5048532;28;20056;-84
2021/09/14 01:00:37;;;;;;;0.45;0.30;;;20.50;99.90;;;;;;5046853;28;20032;-83
2021/09/14 01:03:04;;;;;;;0.27;0.27;;;20.50;99.90;;;;;;5043109;28;20028;-83
2021/09/14 01:05:30;;;;;;;0.03;0.03;;;20.60;99.90;;;;;;5049568;28;20033;-83
2021/09/14 01:07:57;;;;;;;0.87;0.20;;;20.60;99.90;;;;;;5053209;28;20085;-83
2021/09/14 01:10:23;;;;;;;0.10;0.10;;;20.60;99.90;;;;;;5055494;28;20283;-82
2021/09/14 01:12:49;;;;;;;0.15;0.13;;;20.80;99.90;;;;;;5051640;28;20098;-80
2021/09/14 01:15:15;;;;;;;0.35;0.32;;;21.00;99.90;;;;;;5051288;28;20537;-80
2021/09/14 01:17:41;;;;;;;0.45;0.43;;;21.20;99.90;;;;;;5049343;28;20098;-80
2021/09/14 01:20:08;;;;;;;0.25;0.25;;;21.20;99.90;;;;;;5046952;28;20501;-79
2021/09/14 01:22:34;;;;;;;0.30;0.10;;;21.10;99.90;;;;;;5051045;28;20029;-79
2021/09/14 01:25:01;;;;;;;0.40;0.40;;;21.10;99.90;;;;;;5051245;28;20524;-79
2021/09/14 01:27:27;;;;;;;0.65;0.20;;;21.00;99.90;;;;;;5046731;28;20048;-79
2021/09/14 01:30:12;;;;;;;0.20;0.20;;;20.90;99.90;;;;;;5051579;28;20041;-79
2021/09/14 01:32:43;;;;;;;0.23;0.20;;;20.90;99.90;;;;;;5050214;28;20401;-79
2021/09/14 01:35:19;;;;;;;0.45;0.40;;;20.90;99.90;;;;;;5055883;28;20036;-79
2021/09/14 01:37:45;;;;;;;1.13;1.02;;;20.70;99.90;;;;;;5056372;28;20037;-80
2021/09/14 01:40:11;;;;;;;0.10;0.10;;;20.40;99.90;;;;;;5057468;28;20421;-79
2021/09/14 01:42:37;;;;;;;0.20;0.10;;;20.30;99.90;;;;;;5058309;28;20028;-80
2021/09/14 01:45:04;;;;;;;2.35;0.60;;;20.30;99.90;;;;;;5053996;28;20033;-79
2021/09/14 01:47:30;;;;;;;0.10;0.10;;;20.30;99.90;;;;;;5059571;28;20064;-80
2021/09/14 01:49:56;;;;;;;0.37;0.30;;;20.30;99.90;;;;;;5060321;28;20064;-79
2021/09/14 01:52:23;;;;;;;0.70;0.47;;;20.40;99.90;;;;;;5055292;28;20032;-79
2021/09/14 01:54:50;;;;;;;;;;;20.30;99.90;;;;;;5057317;28;20104;-80
2021/09/14 01:57:20;;;;;;;0.35;0.20;;;20.30;99.90;;;;;;5052974;28;19935;-80
2021/09/14 01:59:46;;;;;;;0.75;0.20;;;20.30;99.90;;;;;;5042057;28;20494;-80
2021/09/14 02:02:47;;;;;;;0.30;0.30;;;20.30;99.90;;;;;;5049807;28;20035;-80
2021/09/14 02:59:09;;;;;;;2.30;0.98;;;20.00;99.90;;;;;;5038606;28;20460;-80
2021/09/14 03:01:35;;;;;;;0.07;0.07;;;20.00;99.90;;;;;;5060219;28;20067;-80
2021/09/14 03:04:04;;;;;;;0.20;0.20;;;19.90;99.90;;;;;;5052745;28;20025;-80
2021/09/14 03:06:30;;;;;;;0.20;0.20;;;19.90;99.90;;;;;;5057236;28;20463;-80
2021/09/14 03:08:55;;;;;;;0.03;0.03;;;19.80;99.90;;;;;;5046958;28;20071;-80
2021/09/14 03:11:21;;;;;;;0.43;0.40;;;19.80;99.90;;;;;;5047109;28;20528;-79
2021/09/14 03:13:47;;;;;;;1.90;0.63;;;19.80;99.90;;;;;;5046812;28;27126;-81
2021/09/14 03:16:13;;;;;;;0.30;0.30;;;19.70;99.90;;;;;;5050347;28;20025;-81
2021/09/14 03:18:39;;;;;;;0.52;0.32;;;19.70;99.90;;;;;;5055389;28;20043;-81
2021/09/14 03:21:07;;;;;;;0.17;0.17;;;19.60;99.90;;;;;;5040745;28;20662;-82
2021/09/14 03:23:33;;;;;;;0.20;0.20;;;19.50;99.90;;;;;;5053085;28;20541;-81
2021/09/14 03:26:00;;;;;;;1.10;0.57;;;19.50;99.90;;;;;;5051084;28;20086;-80
2021/09/14 03:28:26;;;;;;;0.77;0.28;;;19.40;99.90;;;;;;5052973;28;20045;-81
2021/09/14 03:30:53;;;;;;;0.35;0.35;;;19.40;99.90;;;;;;5054642;28;20029;-81
2021/09/14 03:33:19;;;;;;;0.20;0.20;;;19.40;99.90;;;;;;5047810;28;20044;-81
2021/09/14 03:35:44;;;;;;;0.30;0.30;;;19.20;99.90;;;;;;5032711;28;20029;-80
2021/09/14 03:38:11;;;;;;;0.50;0.50;;;19.30;99.90;;;;;;5045950;28;20531;-81
2021/09/14 03:40:39;;;;;;;0.43;0.30;;;19.20;99.90;;;;;;5047361;28;20060;-81
2021/09/14 03:43:05;;;;;;;0.50;0.10;;;19.30;99.90;;;;;;5041033;28;20032;-81
2021/09/14 03:45:31;;;;;;;0.40;0.40;;;19.30;99.90;;;;;;5048208;28;20033;-81
2021/09/14 03:47:56;;;;;;;0.10;0.10;;;19.40;99.90;;;;;;5052932;28;20391;-83
2021/09/14 03:50:22;;;;;;;0.50;0.50;;;19.40;99.90;;;;;;5047370;28;20598;-83
2021/09/14 03:52:48;;;;;;;0.10;0.10;;;19.50;99.90;;;;;;5053534;28;20044;-81
2021/09/14 03:55:13;;;;;;;0.30;0.30;;;19.40;99.90;;;;;;5057747;28;20024;-81
2021/09/14 03:57:39;;;;;;;0.10;0.10;;;19.40;99.90;;;;;;5049782;28;20028;-81
2021/09/14 04:00:06;;;;;;;0.30;0.30;;;19.40;99.90;;;;;;5028632;28;20332;-81
2021/09/14 04:02:38;;;;;;;0.38;0.20;;;19.50;99.90;;;;;;5045955;28;20033;-81
2021/09/14 04:05:22;;;;;;;0.00;0.00;;;19.70;99.90;;;;;;5045888;28;20421;-81
2021/09/14 04:10:17;;;;;;;0.40;0.40;;;19.90;99.90;;;;;;5049957;28;20037;-84
2021/09/14 04:12:43;;;;;;;0.30;0.20;;;19.90;99.90;;;;;;5052909;28;20033;-84
2021/09/14 04:15:09;;;;;;;0.10;0.10;;;19.90;99.90;;;;;;5047515;28;20036;-85
2021/09/14 04:17:35;;;;;;;1.58;0.75;;;19.90;99.90;;;;;;5045595;28;20032;-85
2021/09/14 04:20:00;;;;;;;0.60;0.60;;;20.00;99.90;;;;;;5047202;28;20041;-83
2021/09/14 04:22:26;;;;;;;0.07;0.07;;;19.90;99.90;;;;;;5048281;28;20032;-83
2021/09/14 04:24:52;;;;;;;0.10;0.10;;;19.60;99.90;;;;;;5035782;28;20504;-84
2021/09/14 04:27:18;;;;;;;0.37;0.37;;;19.30;99.90;;;;;;5046636;28;20631;-82
2021/09/14 04:29:44;;;;;;;0.10;0.10;;;19.20;99.90;;;;;;5048834;28;20028;-82
2021/09/14 04:32:10;;;;;;;1.67;0.90;;;19.00;99.90;;;;;;5044478;28;20547;-83
2021/09/14 04:34:36;;;;;;;0.50;0.50;;;18.80;99.90;;;;;;5009286;28;20033;-80
2021/09/14 04:37:02;;;;;;;0.60;0.45;;;18.80;99.90;;;;;;5046749;28;20040;-81
2021/09/14 04:39:27;;;;;;;0.10;0.10;;;18.80;99.90;;;;;;5046367;28;20636;-82
2021/09/14 04:41:53;;;;;;;0.47;0.40;;;18.70;99.90;;;;;;5051502;28;20140;-80
2021/09/14 04:44:19;;;;;;;0.20;0.20;;;18.60;99.90;;;;;;5048178;28;20032;-82
2021/09/14 04:46:45;;;;;;;0.27;0.27;;;18.60;99.90;;;;;;5053520;28;20104;-80
2021/09/14 04:49:11;;;;;;;;;;;18.60;99.90;;;;;;5054158;28;20417;-83
2021/09/14 04:51:37;;;;;;;0.60;0.60;;;18.60;99.90;;;;;;5044652;28;19919;-83
2021/09/14 04:54:02;;;;;;;0.50;0.40;;;18.60;99.90;;;;;;5045417;28;20283;-83
2021/09/14 04:56:28;;;;;;;0.17;0.17;;;18.60;99.90;;;;;;5048888;28;20033;-82
2021/09/14 04:58:54;;;;;;;0.30;0.30;;;18.60;99.90;;;;;;5057034;28;20060;-82
2021/09/14 05:01:20;;;;;;;0.23;0.23;;;18.50;99.90;;;;;;5047007;28;20024;-82
2021/09/14 05:03:47;;;;;;;0.35;0.35;;;18.50;99.90;;;;;;5028388;28;20029;-84
2021/09/14 05:06:14;;;;;;;0.60;0.52;;;18.30;99.90;;;;;;5044192;28;20025;-82
2021/09/14 05:08:40;;;;;;;0.45;0.45;;;18.20;99.90;;;;;;5032739;28;20063;-85
2021/09/14 05:11:06;;;;;;;0.30;0.30;;;18.20;99.90;;;;;;5055983;28;20514;-83
2021/09/14 05:13:32;;;;;;;0.20;0.20;;;18.20;99.90;;;;;;5060643;28;20513;-87
2021/09/14 05:15:58;;;;;;;0.40;0.40;;;18.20;99.90;;;;;;5045374;28;20120;-84
2021/09/14 05:18:24;;;;;;;0.20;0.20;;;18.30;99.90;;;;;;5054147;28;20124;-83
2021/09/14 05:20:51;;;;;;;;;;;18.50;99.90;;;;;;5058306;28;20017;-84
2021/09/14 05:23:33;;;;;;;0.80;0.68;;;18.80;99.90;;;;;;5057427;28;19994;-88
2021/09/14 05:26:06;;;;;;;1.55;0.40;;;19.10;99.90;;;;;;5056193;28;20023;-90
2021/09/14 05:28:35;;;;;;;5.30;0.70;;;19.30;99.90;;;;;;5036460;28;20126;-88
2021/09/14 05:31:02;;;;;;;0.40;0.40;;;19.30;99.90;;;;;;5038153;28;20067;-85
2021/09/14 05:33:29;;;;;;;1.23;0.65;;;19.40;99.90;;;;;;5052180;28;20033;-86
2021/09/14 05:35:56;;;;;;;0.38;0.38;;;19.40;99.90;;;;;;5056933;28;20095;-86
2021/09/14 05:38:23;;;;;;;0.82;0.77;;;19.10;99.90;;;;;;5059079;28;20103;-86
2021/09/14 05:40:55;;;;;;;0.20;0.20;;;19.20;99.90;;;;;;5059218;28;20041;-86
2021/09/14 05:43:21;;;;;;;2.95;1.40;;;19.20;99.90;;;;;;5061619;28;20028;-87
2021/09/14 05:45:47;;;;;;;0.20;0.20;;;19.40;99.90;;;;;;5040365;28;20037;-84
2021/09/14 05:49:59;;;;;;;0.22;0.22;;;19.60;99.90;;;;;;5076671;28;21037;-83
2021/09/14 05:52:25;;;;;;;0.17;0.13;;;19.60;99.90;;;;;;5072347;28;20563;-82
2021/09/14 05:54:51;;;;;;;4.10;0.30;;;19.60;99.90;;;;;;5074389;28;20035;-82
2021/09/14 05:57:17;;;;;;;0.53;0.53;;;19.70;99.90;;;;;;5074731;28;20032;-82
2021/09/14 05:59:42;;;;;;;0.10;0.10;;;19.80;99.90;;;;;;5074544;28;20028;-83
2021/09/14 06:02:08;;;;;;;0.63;0.60;;;20.00;99.90;;;;;;5077807;28;20119;-83
2021/09/14 06:04:34;;;;;;;2.40;0.53;;;20.20;99.90;;;;;;5062861;28;20035;-84
2021/09/14 06:06:59;;;;;;;0.33;0.17;;;20.20;99.90;;;;;;5075379;28;20093;-83
2021/09/14 06:09:25;;;;;;;0.07;0.07;;;20.40;99.90;;;;;;5074065;28;20043;-84
2021/09/14 06:11:51;;;;;;;0.00;0.00;;;20.60;99.90;;;;;;5074697;28;20032;-84
2021/09/14 06:14:16;;;;;;;0.00;0.00;;;20.70;99.90;;;;;;5076693;28;20024;-84
2021/09/14 06:16:42;;;;;;;0.00;0.00;;;21.00;99.90;;;;;;5077181;28;20039;-84
2021/09/14 06:19:08;;;;;;;1.40;0.10;;;21.20;99.90;;;;;;5076450;28;20043;-83
2021/09/14 06:21:37;;;;;;;0.23;0.23;;;21.30;99.90;;;;;;5069238;28;20044;-85
2021/09/14 06:24:07;;;;;;;0.32;0.32;;;21.50;99.90;;;;;;5066982;28;20032;-85
2021/09/14 06:26:35;;;;;;;0.55;0.40;;;21.40;99.90;;;;;;5073723;28;20120;-86
2021/09/14 06:29:01;;;;;;;1.23;0.88;;;21.50;99.90;;;;;;5078741;28;20528;-84
2021/09/14 06:31:27;;;;;;;0.35;0.35;;;21.70;99.90;;;;;;5080988;28;20024;-85
2021/09/14 06:33:53;;;;;;;0.57;0.30;;;22.00;99.90;;;;;;5073900;28;20036;-86
2021/09/14 06:36:18;;;;;;;3.83;0.53;;;21.80;99.90;;;;;;5054186;28;20039;-85
2021/09/14 06:38:44;;;;;;;0.17;0.17;;;21.90;99.90;;;;;;5066424;28;20029;-86
2021/09/14 06:41:10;;;;;;;0.20;0.20;;;22.10;99.90;;;;;;5073346;28;20024;-84
2021/09/14 06:43:35;;;;;;;0.20;0.20;;;22.30;99.90;;;;;;5076877;28;20067;-85
2021/09/14 06:46:01;;;;;;;0.40;0.40;;;22.20;99.90;;;;;;5074975;28;20028;-85
2021/09/14 06:48:27;;;;;;;0.43;0.40;;;22.70;99.90;;;;;;5073768;28;20052;-84
2021/09/14 06:50:53;;;;;;;0.20;0.20;;;23.40;99.90;;;;;;5074258;28;20025;-84
2021/09/14 06:53:18;;;;;;;1.45;0.52;;;23.80;99.90;;;;;;5061475;28;20032;-84
2021/09/14 06:55:44;;;;;;;0.20;0.20;;;23.80;99.90;;;;;;5075981;28;20085;-84
2021/09/14 06:58:10;;;;;;;0.17;0.17;;;24.30;99.90;;;;;;5075834;28;20509;-84
2021/09/14 07:00:36;;;;;;;0.30;0.22;;;25.00;99.90;;;;;;5064464;28;20089;-86
2021/09/14 07:03:03;;;;;;;0.10;0.10;;;25.70;99.90;;;;;;5060281;28;20028;-84
2021/09/14 07:05:29;;;;;;;0.13;0.10;;;26.40;99.90;;;;;;5060743;28;20033;-85
2021/09/14 07:07:55;;;;;;;0.25;0.10;;;26.50;99.90;;;;;;5064653;28;20024;-86
2021/09/14 07:10:21;;;;;;;;;;;26.40;99.90;;;;;;5062897;28;20037;-84
2021/09/14 07:12:47;;;;;;;;;;;26.20;99.90;;;;;;5060492;28;19982;-83
2021/09/14 07:15:13;;;;;;;0.10;0.10;;;25.90;99.90;;;;;;5060192;28;20418;-84
2021/09/14 07:17:38;;;;;;;0.75;0.43;;;25.30;99.90;;;;;;5058399;28;20036;-83
2021/09/14 07:20:06;;;;;;;0.40;0.30;;;25.30;99.90;;;;;;5064707;28;20386;-83
2021/09/14 07:22:32;;;;;;;0.20;0.20;;;25.50;99.90;;;;;;5049458;28;20279;-83
2021/09/14 07:24:58;;;;;;;0.30;0.30;;;26.40;99.90;;;;;;5060796;28;20124;-84
2021/09/14 07:27:24;;;;;;;0.23;0.23;;;26.70;99.90;;;;;;5060021;28;20155;-84
2021/09/14 07:29:51;;;;;;;0.30;0.23;;;25.20;99.90;;;;;;5059852;28;20041;-83
2021/09/14 07:32:16;;;;;;;0.20;0.10;;;24.60;99.90;;;;;;5061865;28;20025;-83
2021/09/14 07:34:42;;;;;;;0.10;0.10;;;23.90;99.90;;;;;;5061724;28;20033;-84
2021/09/14 07:37:08;;;;;;;0.33;0.33;;;23.80;99.90;;;;;;5061222;28;20169;-83
2021/09/14 07:39:33;;;;;;;1.60;0.50;;;23.90;99.90;;;;;;5059608;28;20082;-83
2021/09/14 07:41:59;;;;;;;0.33;0.33;;;24.90;99.90;;;;;;5059734;28;20029;-83
2021/09/14 07:44:25;;;;;;;0.20;0.13;;;25.10;99.90;;;;;;5060838;28;20025;-83
2021/09/14 07:46:51;;;;;;;0.20;0.20;;;25.10;99.90;;;;;;5062876;28;20291;-83
2021/09/14 07:49:17;;;;;;;7.07;0.30;;;25.20;99.90;;;;;;5061390;28;20424;-84
2021/09/14 07:51:42;;;;;;;0.75;0.28;;;25.40;99.90;;;;;;5059437;28;20025;-84
2021/09/14 07:54:08;;;;;;;0.30;0.30;;;26.10;99.90;;;;;;5058666;28;20036;-84
2021/09/14 07:56:34;;;;;;;4.47;1.50;;;26.60;99.90;;;;;;5059314;28;20322;-84
2021/09/14 07:59:00;;;;;;;0.53;0.53;;;25.80;99.90;;;;;;5046057;28;20039;-83
2021/09/14 08:01:25;;;;;;;0.00;0.00;;;26.00;99.90;;;;;;5061673;28;20278;-83
2021/09/14 08:03:51;;;;;;;0.17;0.17;;;27.10;99.40;;;;;;5059139;28;20278;-83
2021/09/14 08:06:16;;;;;;;0.50;0.40;;;27.60;98.50;;;;;;5058699;28;20577;-83
2021/09/14 08:08:42;;;;;;;0.43;0.30;;;27.70;97.10;;;;;;5057918;28;20306;-83
2021/09/14 08:11:08;;;;;;;0.10;0.10;;;27.80;97.00;;;;;;5062221;28;20024;-83
2021/09/14 08:13:33;;;;;;;2.00;0.40;;;28.70;94.90;;;;;;5061567;28;20267;-84
2021/09/14 08:15:59;;;;;;;1.03;0.67;;;27.90;95.10;;;;;;5059893;28;20025;-84
2021/09/14 08:18:25;;;;;;;0.30;0.30;;;28.20;94.80;;;;;;5059050;28;20032;-83
2021/09/14 08:20:50;;;;;;;0.33;0.27;;;27.80;94.20;;;;;;5060700;28;20051;-84
2021/09/14 08:23:16;;;;;;;0.28;0.28;;;28.20;94.00;;;;;;5048171;28;20051;-83
2021/09/14 08:25:42;;;;;;;0.20;0.10;;;29.20;93.30;;;;;;5062094;28;20535;-84
2021/09/14 08:28:07;;;;;;;0.30;0.20;;;29.60;91.30;;;;;;5042653;28;20301;-84
2021/09/14 08:30:33;;;;;;;0.00;0.00;;;30.60;91.10;;;;;;5059503;28;20362;-83
2021/09/14 08:32:58;;;;;;;0.87;0.47;;;31.10;89.80;;;;;;5058339;28;20064;-83
2021/09/14 08:35:24;;;;;;;0.13;0.13;;;30.70;87.00;;;;;;5059773;28;20283;-83
2021/09/14 08:37:50;;;;;;;1.00;0.40;;;28.60;89.40;;;;;;5062026;28;20206;-83
2021/09/14 08:40:17;;;;;;;0.05;0.05;;;27.90;91.30;;;;;;5061289;28;20031;-82
2021/09/14 08:42:42;;;;;;;1.45;0.98;;;29.20;88.80;;;;;;5058618;28;20024;-84
2021/09/14 08:45:10;;;;;;;0.28;0.20;;;29.30;89.10;;;;;;5058623;28;20029;-83
2021/09/14 08:47:37;;;;;;;0.22;0.17;;;29.10;87.70;;;;;;5058061;28;20083;-83
2021/09/14 08:50:04;;;;;;;0.00;0.00;;;28.70;90.20;;;;;;5062333;28;20106;-84
2021/09/14 08:52:32;;;;;;;0.40;0.38;;;29.40;85.00;;;;;;5060904;28;20401;-83
2021/09/14 08:54:57;;;;;;;0.93;0.40;;;29.30;87.50;;;;;;5058852;28;20028;-84
2021/09/14 08:57:23;;;;;;;1.40;0.98;;;30.00;80.40;;;;;;5038814;28;20464;-83
2021/09/14 08:59:49;;;;;;;0.30;0.30;;;28.80;86.80;;;;;;5048714;28;20029;-83
2021/09/14 09:02:16;;;;;;;0.20;0.15;;;29.10;86.40;;;;;;5060530;28;20032;-83
2021/09/14 09:04:57;;;;;;;0.15;0.15;;;28.50;86.60;;;;;;5060589;28;20543;-84
2021/09/14 09:07:36;;;;;;;0.32;0.32;;;29.30;85.50;;;;;;5049294;28;20115;-84
2021/09/14 09:10:15;;;;;;;1.33;0.45;;;28.60;85.90;;;;;;5058795;28;20036;-84
2021/09/14 09:12:43;;;;;;;1.42;0.68;;;28.70;86.80;;;;;;5057465;28;20031;-84
2021/09/14 09:15:24;;;;;;;0.75;0.75;;;29.10;85.60;;;;;;5056129;28;20033;-83
2021/09/14 09:18:06;;;;;;;1.25;0.57;;;28.20;88.10;;;;;;5057193;28;20059;-84
2021/09/14 09:20:33;;;;;;;0.20;0.20;;;27.30;88.70;;;;;;5062014;28;20025;-83
2021/09/14 09:23:11;;;;;;;0.00;0.00;;;27.00;91.00;;;;;;5046078;28;20452;-83
2021/09/14 09:25:37;;;;;;;0.10;0.10;;;29.10;85.00;;;;;;5059862;28;20583;-83
2021/09/14 09:28:16;;;;;;;0.73;0.65;;;30.20;82.70;;;;;;5049053;28;20040;-84
2021/09/14 09:30:55;;;;;;;0.63;0.57;;;31.00;78.80;;;;;;5055671;28;20417;-83
2021/09/14 09:33:26;;;;;;;0.55;0.55;;;29.90;81.40;;;;;;5056898;28;20600;-83
2021/09/14 09:36:02;;;;;;;0.30;0.15;;;30.30;79.60;;;;;;5057504;28;20026;-83
2021/09/14 09:38:28;;;;;;;;;;;33.00;71.20;;;;;;5058433;28;20044;-84
2021/09/14 09:40:54;;;;;;;2.60;0.73;;;33.20;65.90;;;;;;5061541;28;19923;-83
2021/09/14 09:43:31;;;;;;;;;;;34.20;62.40;;;;;;5060116;28;20024;-83
2021/09/14 09:46:09;;;;;;;4.35;1.30;;;33.20;58.40;;;;;;5058162;28;20330;-83
2021/09/14 09:48:36;;;;;;;0.60;0.52;;;35.40;55.30;;;;;;5056948;28;20040;-84
2021/09/14 09:51:03;;;;;;;2.13;1.17;;;34.80;54.60;;;;;;5057133;28;20047;-83
2021/09/14 09:53:29;;;;;;;1.13;0.98;;;33.90;63.20;;;;;;5058186;28;20029;-83
2021/09/14 09:55:56;;;;;;;;;;;33.90;54.60;;;;;;5061869;28;20029;-83
2021/09/14 09:58:22;;;;;;;0.30;0.10;;;31.60;56.80;;;;;;5059327;28;19908;-83
2021/09/14 10:00:57;;;;;;;0.30;0.30;;;33.20;54.70;;;;;;5057454;28;20094;-84
2021/09/14 10:03:27;;;;;;;0.38;0.38;;;34.20;50.30;;;;;;5056780;28;20037;-84
2021/09/14 10:05:56;;;;;;;0.32;0.32;;;31.60;58.20;;;;;;5042058;28;20029;-84
2021/09/14 10:08:25;;;;;;;0.32;0.20;;;31.80;57.60;;;;;;5046220;28;20116;-84
2021/09/14 10:10:56;;;;;;;0.20;0.20;;;31.30;59.00;;;;;;5060947;28;20048;-85
2021/09/14 10:13:36;;;;;;;0.10;0.10;;;31.80;57.50;;;;;;5059594;28;20036;-85
2021/09/14 10:16:02;;;;;;;3.40;1.02;;;32.30;57.10;;;;;;5057861;28;20451;-84
2021/09/14 10:18:31;;;;;;;0.20;0.20;;;30.50;57.90;;;;;;5057506;28;20032;-84
2021/09/14 10:20:57;;;;;;;6.55;1.55;;;29.90;63.70;;;;;;5058252;28;20025;-84
2021/09/14 10:23:34;;;;;;;0.10;0.10;;;30.50;63.50;;;;;;5044047;28;20087;-85
2021/09/14 10:26:12;;;;;;;0.43;0.43;;;30.70;62.10;;;;;;5046343;28;20029;-84
2021/09/14 10:28:46;;;;;;;6.13;1.85;;;31.00;60.50;;;;;;5059342;28;20086;-84
2021/09/14 10:31:22;;;;;;;0.10;0.10;;;30.80;60.40;;;;;;5047911;28;20035;-84
2021/09/14 10:34:03;;;;;;;0.70;0.45;;;29.60;66.10;;;;;;5056429;28;20043;-85
2021/09/14 10:36:30;;;;;;;0.43;0.43;;;31.00;62.60;;;;;;5060130;28;20033;-85
2021/09/14 10:38:56;;;;;;;1.48;0.73;;;30.10;63.50;;;;;;5060757;28;20028;-84
2021/09/14 10:41:33;;;;;;;0.32;0.32;;;29.90;65.70;;;;;;5062095;28;20025;-84
2021/09/14 10:44:00;;;;;;;0.13;0.13;;;30.40;63.60;;;;;;5049480;28;20032;-84
2021/09/14 10:46:26;;;;;;;1.65;0.40;;;29.90;64.70;;;;;;5062652;28;20063;-85
2021/09/14 10:48:52;;;;;;;5.82;0.75;;;29.30;66.90;;;;;;5060753;28;20083;-84
2021/09/14 10:51:19;;;;;;;0.68;0.57;;;28.90;68.90;;;;;;5060696;28;20048;-85
2021/09/14 10:53:57;;;;;;;0.15;0.10;;;28.70;69.10;;;;;;5060910;28;20526;-85
2021/09/14 10:56:24;;;;;;;0.65;0.45;;;28.70;69.30;;;;;;5062104;28;20060;-85
2021/09/14 10:58:50;;;;;;;0.17;0.17;;;29.50;67.90;;;;;;5064381;28;20720;-85
2021/09/14 11:01:22;;;;;;;2.17;0.20;;;29.10;68.90;;;;;;5062441;28;20100;-84
2021/09/14 11:04:07;;;;;;;0.38;0.38;;;28.90;68.80;;;;;;5060573;28;20102;-84
2021/09/14 11:06:33;;;;;;;0.10;0.10;;;28.60;70.00;;;;;;5060294;28;20028;-84
2021/09/14 11:09:01;;;;;;;1.30;0.75;;;28.50;70.00;;;;;;5060272;28;20127;-84
2021/09/14 11:11:27;;;;;;;0.95;0.85;;;28.80;69.70;;;;;;5061066;28;20025;-85
2021/09/14 11:13:53;;;;;;;0.57;0.43;;;28.50;70.40;;;;;;5063933;28;23656;-84
2021/09/14 11:16:19;;;;;;;0.82;0.77;;;28.50;70.00;;;;;;5062291;28;20056;-84
2021/09/14 11:18:45;;;;;;;0.50;0.50;;;29.00;69.70;;;;;;5060214;28;20067;-85
2021/09/14 11:21:14;;;;;;;0.38;0.38;;;29.40;68.40;;;;;;5059489;28;20171;-85
2021/09/14 11:23:41;;;;;;;0.05;0.05;;;29.70;68.20;;;;;;5049673;28;20037;-85
2021/09/14 11:26:09;;;;;;;0.35;0.35;;;29.60;68.00;;;;;;5063376;28;20568;-85
2021/09/14 11:28:36;;;;;;;3.95;0.63;;;29.50;66.70;;;;;;5061977;28;20032;-85
2021/09/14 11:31:05;;;;;;;0.10;0.10;;;28.20;70.50;;;;;;5060748;28;20032;-85
2021/09/14 11:33:31;;;;;;;0.20;0.10;;;28.90;70.80;;;;;;5059608;28;20035;-84
2021/09/14 11:35:59;;;;;;;;;;;28.70;69.20;;;;;;5059961;28;20566;-85
2021/09/14 11:38:25;;;;;;;0.30;0.20;;;28.00;70.60;;;;;;5062996;28;19919;-85
2021/09/14 11:40:56;;;;;;;0.38;0.38;;;28.00;72.20;;;;;;5047040;28;20040;-84
2021/09/14 11:43:33;;;;;;;0.32;0.32;;;28.80;70.70;;;;;;5061380;28;20047;-85
2021/09/14 11:46:17;;;;;;;0.15;0.15;;;28.60;68.80;;;;;;5051167;28;20047;-85
2021/09/14 11:48:58;;;;;;;0.00;0.00;;;28.60;69.50;;;;;;5054711;28;21002;-85
2021/09/14 11:51:26;;;;;;;0.25;0.25;;;28.70;69.80;;;;;;5058954;28;20055;-85
2021/09/14 11:53:52;;;;;;;0.20;0.20;;;28.00;85.10;;;;;;5059601;28;20386;-85
2021/09/14 11:56:20;;;;;;;7.35;0.30;;;28.20;71.20;;;;;;5047463;28;20082;-84
2021/09/14 11:58:49;;;;;;;5.07;0.68;;;28.00;70.40;;;;;;5061587;28;20039;-85
2021/09/14 12:01:17;;;;;;;1.58;1.08;;;28.30;71.30;;;;;;5061283;28;20404;-85
2021/09/14 12:03:48;;;;;;;0.75;0.32;;;28.20;71.30;;;;;;5058990;28;20048;-86
2021/09/14 12:06:25;;;;;;;0.13;0.10;;;28.20;71.30;;;;;;5059026;28;20221;-84
2021/09/14 12:08:52;;;;;;;0.35;0.17;;;28.00;72.30;;;;;;5058975;28;20044;-84
2021/09/14 12:11:29;;;;;;;0.30;0.30;;;28.00;72.00;;;;;;5043854;28;20028;-84
2021/09/14 12:14:03;;;;;;;0.43;0.43;;;27.80;72.30;;;;;;5062610;28;20035;-85
2021/09/14 12:16:40;;;;;;;0.32;0.32;;;27.80;73.00;;;;;;5039968;28;20378;-84
2021/09/14 12:19:07;;;;;;;0.40;0.40;;;28.00;71.50;;;;;;5059952;28;20048;-84
2021/09/14 12:21:33;;;;;;;8.52;2.28;;;28.20;71.20;;;;;;5054523;28;20071;-84
2021/09/14 12:23:59;;;;;;;0.00;0.00;;;28.30;70.10;;;;;;5050683;28;20040;-85
2021/09/14 12:26:37;;;;;;;2.45;1.23;;;28.50;70.90;;;;;;5058546;28;20838;-84
2021/09/14 12:29:03;;;;;;;1.10;0.75;;;28.60;69.70;;;;;;5046904;28;20382;-84
2021/09/14 12:31:28;;;;;;;0.35;0.35;;;29.10;68.00;;;;;;5060679;28;20486;-86
2021/09/14 12:33:54;;;;;;;0.40;0.40;;;29.40;68.70;;;;;;5058132;28;20074;-85
2021/09/14 12:36:20;;;;;;;0.13;0.13;;;29.30;66.10;;;;;;5057901;28;20115;-84
2021/09/14 12:38:45;;;;;;;0.15;0.15;;;29.30;66.50;;;;;;5057983;28;20073;-84
2021/09/14 12:41:14;;;;;;;0.10;0.10;;;29.20;67.00;;;;;;5061019;28;20038;-84
2021/09/14 12:43:41;;;;;;;0.13;0.13;;;28.60;68.90;;;;;;5060621;28;20032;-85
2021/09/14 12:46:06;;;;;;;1.25;0.20;;;28.60;68.00;;;;;;5059280;28;20032;-85
2021/09/14 12:48:32;;;;;;;0.40;0.40;;;28.40;67.90;;;;;;5057374;28;20048;-84
2021/09/14 12:51:00;;;;;;;10.27;0.73;;;28.30;82.10;;;;;;5057767;28;20056;-84
2021/09/14 12:53:26;;;;;;;0.45;0.45;;;28.60;68.00;;;;;;5058737;28;20132;-85
2021/09/14 12:55:52;;;;;;;0.15;0.15;;;28.90;67.90;;;;;;5061144;28;20045;-84
2021/09/14 12:58:18;;;;;;;4.20;0.30;;;29.30;67.00;;;;;;5059404;28;20058;-85
2021/09/14 13:00:43;;;;;;;0.10;0.10;;;29.40;65.30;;;;;;5057993;28;20119;-85
2021/09/14 13:03:09;;;;;;;3.83;2.35;;;29.60;64.30;;;;;;5057369;28;20041;-84
2021/09/14 13:05:35;;;;;;;0.63;0.50;;;30.10;62.40;;;;;;5057069;28;20048;-85
2021/09/14 13:08:01;;;;;;;0.05;0.00;;;30.50;62.60;;;;;;5061730;28;20068;-85
2021/09/14 13:10:27;;;;;;;0.10;0.10;;;30.70;60.60;;;;;;5059957;28;20626;-85
2021/09/14 13:18:23;;;;;;;0.17;0.17;;;28.90;63.40;;;;;;5057607;28;20185;-85
2021/09/14 13:20:49;;;;;;;0.50;0.50;;;28.90;63.40;;;;;;5059962;28;20036;-85
2021/09/14 13:23:15;;;;;;;9.00;1.00;;;29.00;63.30;;;;;;5046262;28;20020;-85
2021/09/14 13:25:41;;;;;;;0.43;0.35;;;28.60;64.60;;;;;;5060375;28;20495;-84
2021/09/14 13:28:07;;;;;;;0.10;0.10;;;28.60;64.80;;;;;;5028214;28;20083;-85
2021/09/14 13:30:33;;;;;;;0.52;0.10;;;28.90;64.20;;;;;;5036959;28;20033;-85
2021/09/14 13:32:59;;;;;;;0.15;0.10;;;28.90;64.20;;;;;;5049478;28;20123;-85
2021/09/14 13:35:25;;;;;;;0.30;0.30;;;29.70;63.20;;;;;;5059225;28;20036;-85
2021/09/14 13:37:52;;;;;;;0.95;0.52;;;29.70;62.40;;;;;;5060839;28;20032;-85
2021/09/14 13:40:18;;;;;;;0.50;0.50;;;29.60;62.50;;;;;;5059782;28;20033;-85
2021/09/14 13:42:44;;;;;;;0.32;0.32;;;30.00;60.70;;;;;;5056925;28;20097;-85
2021/09/14 13:47:54;;;;;;;0.17;0.17;;;29.80;61.10;;;;;;5057515;28;20101;-85
2021/09/14 13:50:20;;;;;;;0.65;0.50;;;30.20;59.90;;;;;;5059532;28;20135;-84
2021/09/14 13:52:45;;;;;;;0.77;0.65;;;29.90;60.40;;;;;;5060303;28;20446;-85
2021/09/14 13:55:11;;;;;;;0.30;0.20;;;29.50;62.20;;;;;;5048483;28;20025;-85
2021/09/14 13:57:37;;;;;;;0.30;0.30;;;29.40;61.20;;;;;;5048586;28;20029;-85